Domremy, Canada
Current Conditions -  °F | °C
As of 7:00 PM on Friday 28 Nov 2014 (Local Time) from CYPA Reporting Station
Light Snow Light Snow  
Wind Chill: -22°   Ceiling: 4000
Heat Index: -4°   Visibility: 3mi
Dew Point: -9°   Wind: 12mph
Humidity: 78%   Direction: 60°ENE
Pressure: 29.73"   Gusts: NA
Location:  52.78°N, 105.73°W
Report Text: CYPA 290100Z 06010KT 3SM -SN DRSN BKN040 OVC150 M20/M23 A2973 RMK SC5AC3 PRESFR SLP111
Loading
Personal Weather Stations






























Interactive Weather Map New forecast layout! Learn more

10-Day Weather Forecast

Advertisements
Track Severe Weather on mobile